LHBP/BUD METAR and TAF weather

Enter ICAO airport designator
Station Type Date Time Source
LHBP METAR 2018/12/12 07:00 UTC NOAA

LHBP 120700Z 34005KT 310V040 CAVOK M01/M01 Q1016 NOSIG


Station Type Date Time Source
LHBP Decoded METAR 2018/12/12 07:00 UTC NOAA

Budapest / Ferihegy, Hungary (LHBP) 47-26N 019-16E 185M
Dec 12, 2018 - 02:00 AM EST / 2018.12.12 0700 UTC
Wind: from the NNW (340 degrees) at 6 MPH (5 KT) (direction variable):0
Visibility: greater than 7 mile(s):0
Temperature: 30 F (-1 C)
Windchill: 23 F (-5 C):1
Dew Point: 30 F (-1 C)
Relative Humidity: 100%
Pressure (altimeter): 30.00 in. Hg (1016 hPa)
ob: LHBP 120700Z 34005KT 310V040 CAVOK M01/M01 Q1016 NOSIG
cycle: 7

Station Type Date Time Source
LHBP TAF 2018/12/12 06:27 UTC NOAA

TAF TAF LHBP 120515Z 1206/1306 31006KT CAVOK
BECMG 1210/1212 BKN018 BKN040
TEMPO 1215/1218 -SN -SNRA
BECMG 1216/1218 VRB03KT 7000 NSC
BECMG 1220/1222 4000 BR


Example: see airport list